Time;durP1;ratioP1;P1;durP2;ratioP2;P2;SDS_P1;SDS_P2;PMS_P1;PMS_P2;Temp;Humidity;BMP_temperature;BMP_pressure;BME280_temperature;BME280_humidity;BME280_pressure;Samples;Min_cycle;Max_cycle;Signal;HPM_P1;HPM_P2
2023/04/26 00:00:17;;;;;;;;;;;;;;;;;;5065516;28;20473;-74
2023/04/26 00:03:06;;;;;;;;;;;;;;;;;;5063384;28;19916;-74
2023/04/26 00:05:52;;;;;;;;;;;;;;;;;;5062653;28;19912;-74
2023/04/26 00:08:39;;;;;;;;;;;;;;;;;;5046862;28;20336;-74
2023/04/26 00:11:25;;;;;;;;;;;;;;;;;;5064117;28;19921;-77
2023/04/26 00:14:12;;;;;;;;;;;;;;;;;;5062916;28;19932;-75
2023/04/26 00:16:58;;;;;;;;;;;;;;;;;;5063781;28;20695;-74
2023/04/26 00:19:45;;;;;;;;;;;;;;;;;;5064024;28;20290;-75
2023/04/26 00:22:32;;;;;;;;;;;;;;;;;;5062435;28;19931;-74
2023/04/26 00:25:18;;;;;;;;;;;;;;;;;;5062668;28;20387;-74
2023/04/26 00:28:05;;;;;;;;;;;;;;;;;;5056717;28;19913;-74
2023/04/26 00:30:51;;;;;;;;;;;;;;;;;;5059975;28;19923;-74
2023/04/26 00:33:38;;;;;;;;;;;;;;;;;;5061460;28;20452;-74
2023/04/26 00:36:25;;;;;;;;;;;;;;;;;;5061804;28;19920;-74
2023/04/26 00:39:11;;;;;;;;;;;;;;;;;;5057047;28;19916;-74
2023/04/26 00:41:58;;;;;;;;;;;;;;;;;;5059177;28;19920;-75
2023/04/26 00:44:44;;;;;;;;;;;;;;;;;;5062346;28;19917;-75
2023/04/26 00:47:31;;;;;;;;;;;;;;;;;;5062224;28;19924;-76
2023/04/26 00:50:17;;;;;;;;;;;;;;;;;;5064556;28;19923;-75
2023/04/26 00:53:04;;;;;;;;;;;;;;;;;;5060876;28;19916;-75
2023/04/26 00:55:51;;;;;;;;;;;;;;;;;;5062373;28;19928;-75
2023/04/26 00:58:38;;;;;;;;;;;;;;;;;;5064981;28;19916;-76
2023/04/26 01:01:24;;;;;;;;;;;;;;;;;;5060458;28;19928;-75
2023/04/26 01:04:11;;;;;;;;;;;;;;;;;;5057912;28;19916;-76
2023/04/26 01:06:58;;;;;;;;;;;;;;;;;;5059670;28;19916;-75
2023/04/26 01:09:44;;;;;;;;;;;;;;;;;;5062102;28;19920;-75
2023/04/26 01:12:31;;;;;;;;;;;;;;;;;;5062014;28;19921;-75
2023/04/26 01:15:18;;;;;;;;;;;;;;;;;;5051305;28;20105;-75
2023/04/26 01:18:04;;;;;;;;;;;;;;;;;;5064255;28;19940;-76
2023/04/26 01:20:52;;;;;;;;;;;;;;;;;;5059568;28;19943;-75
2023/04/26 01:23:38;;;;;;;;;;;;;;;;;;5065313;28;19924;-75
2023/04/26 01:26:26;;;;;;;;;;;;;;;;;;5065993;28;19928;-76
2023/04/26 01:29:12;;;;;;;;;;;;;;;;;;5061398;28;19916;-75
2023/04/26 01:31:59;;;;;;;;;;;;;;;;;;5066361;28;20695;-76
2023/04/26 01:34:45;;;;;;;;;;;;;;;;;;5086134;28;19931;-76
2023/04/26 01:37:31;;;;;;;;;;;;;;;;;;5082580;28;19954;-75
2023/04/26 01:40:18;;;;;;;;;;;;;;;;;;5086239;28;19928;-74
2023/04/26 01:43:05;;;;;;;;;;;;;;;;;;5087981;28;19973;-75
2023/04/26 01:45:51;;;;;;;;;;;;;;;;;;5085314;28;19923;-74
2023/04/26 01:48:38;;;;;;;;;;;;;;;;;;5082499;28;19924;-75
2023/04/26 01:51:24;;;;;;;;;;;;;;;;;;5083592;28;19927;-75
2023/04/26 01:54:11;;;;;;;;;;;;;;;;;;5096270;28;20149;-75
2023/04/26 01:56:58;;;;;;;;;;;;;;;;;;5088142;28;20376;-74
2023/04/26 01:59:44;;;;;;;;;;;;;;;;;;5084148;28;20295;-75
2023/04/26 02:02:31;;;;;;;;;;;;;;;;;;5081460;28;19927;-75
2023/04/26 02:05:17;;;;;;;;;;;;;;;;;;5085563;28;19923;-74
2023/04/26 02:08:05;;;;;;;;;;;;;;;;;;5090506;28;19916;-75
2023/04/26 02:10:51;;;;;;;;;;;;;;;;;;5091406;28;20389;-75
2023/04/26 02:13:37;;;;;;;;;;;;;;;;;;5102332;28;19927;-75
2023/04/26 02:16:24;;;;;;;;;;;;;;;;;;5105742;28;19922;-75
2023/04/26 02:19:11;;;;;;;;;;;;;;;;;;5102079;28;19919;-75
2023/04/26 02:21:57;;;;;;;;;;;;;;;;;;5080666;28;19920;-75
2023/04/26 02:24:44;;;;;;;;;;;;;;;;;;5084802;28;19924;-75
2023/04/26 02:27:31;;;;;;;;;;;;;;;;;;5084025;28;19920;-75
2023/04/26 02:30:18;;;;;;;;;;;;;;;;;;5086448;28;20390;-75
2023/04/26 02:33:04;;;;;;;;;;;;;;;;;;5087171;28;19931;-74
2023/04/26 02:35:51;;;;;;;;;;;;;;;;;;5099928;28;20376;-74
2023/04/26 02:38:37;;;;;;;;;;;;;;;;;;5079232;28;19916;-74
2023/04/26 02:41:24;;;;;;;;;;;;;;;;;;5083290;28;19912;-75
2023/04/26 02:44:10;;;;;;;;;;;;;;;;;;5083725;28;19916;-74
2023/04/26 02:46:57;;;;;;;;;;;;;;;;;;5098530;28;19920;-75
2023/04/26 02:49:43;;;;;;;;;;;;;;;;;;5104776;28;19916;-74
2023/04/26 02:52:30;;;;;;;;;;;;;;;;;;5101203;28;20312;-75
2023/04/26 02:55:16;;;;;;;;;;;;;;;;;;5100942;28;19924;-74
2023/04/26 02:58:02;;;;;;;;;;;;;;;;;;5104607;28;20271;-73
2023/04/26 03:00:49;;;;;;;;;;;;;;;;;;5103233;28;19915;-73
2023/04/26 03:03:36;;;;;;;;;;;;;;;;;;5099013;28;19920;-74
2023/04/26 03:06:22;;;;;;;;;;;;;;;;;;5096600;28;19954;-75
2023/04/26 03:09:09;;;;;;;;;;;;;;;;;;5082370;28;20446;-75
2023/04/26 03:11:55;;;;;;;;;;;;;;;;;;5082474;28;19916;-75
2023/04/26 03:14:42;;;;;;;;;;;;;;;;;;5081579;28;19935;-74
2023/04/26 03:17:28;;;;;;;;;;;;;;;;;;5084801;28;19920;-74
2023/04/26 03:20:15;;;;;;;;;;;;;;;;;;5061403;28;20309;-74
2023/04/26 03:23:01;;;;;;;;;;;;;;;;;;5078261;28;19928;-74
2023/04/26 03:25:48;;;;;;;;;;;;;;;;;;5080680;28;19942;-74
2023/04/26 03:28:34;;;;;;;;;;;;;;;;;;5082480;28;19916;-74
2023/04/26 03:31:22;;;;;;;;;;;;;;;;;;5082525;28;19927;-75
2023/04/26 03:34:09;;;;;;;;;;;;;;;;;;5081713;28;19946;-76
2023/04/26 03:36:55;;;;;;;;;;;;;;;;;;5079386;28;20371;-77
2023/04/26 03:39:42;;;;;;;;;;;;;;;;;;5083300;28;19920;-76
2023/04/26 03:42:28;;;;;;;;;;;;;;;;;;5083208;28;19920;-76
2023/04/26 03:45:15;;;;;;;;;;;;;;;;;;5082721;28;19916;-78
2023/04/26 03:48:03;;;;;;;;;;;;;;;;;;5080207;28;25850;-77
2023/04/26 03:50:50;;;;;;;;;;;;;;;;;;5080303;28;19912;-76
2023/04/26 03:53:36;;;;;;;;;;;;;;;;;;5083134;28;19943;-76
2023/04/26 03:56:23;;;;;;;;;;;;;;;;;;5082335;28;19916;-77
2023/04/26 03:59:09;;;;;;;;;;;;;;;;;;5078974;28;19924;-77
2023/04/26 04:01:56;;;;;;;;;;;;;;;;;;5084695;28;19924;-77
2023/04/26 04:04:42;;;;;;;;;;;;;;;;;;5082850;28;19919;-76
2023/04/26 04:07:31;;;;;;;;;;;;;;;;;;5076304;28;19916;-77
2023/04/26 04:10:18;;;;;;;;;;;;;;;;;;5081742;28;19920;-79
2023/04/26 04:13:04;;;;;;;;;;;;;;;;;;5078463;28;19926;-77
2023/04/26 04:15:51;;;;;;;;;;;;;;;;;;5081359;28;19928;-77
2023/04/26 04:18:37;;;;;;;;;;;;;;;;;;5081224;28;19916;-77
2023/04/26 04:21:24;;;;;;;;;;;;;;;;;;5074268;28;19938;-79
2023/04/26 04:24:11;;;;;;;;;;;;;;;;;;5078752;28;19926;-77
2023/04/26 04:27:00;;;;;;;;;;;;;;;;;;5078849;28;19927;-77
2023/04/26 04:29:46;;;;;;;;;;;;;;;;;;5065551;28;20363;-77
2023/04/26 04:32:33;;;;;;;;;;;;;;;;;;5076611;28;19920;-77
2023/04/26 04:35:19;;;;;;;;;;;;;;;;;;5079737;28;20307;-78
2023/04/26 04:38:06;;;;;;;;;;;;;;;;;;5081155;28;20467;-77
2023/04/26 04:40:52;;;;;;;;;;;;;;;;;;5085421;28;19916;-77
2023/04/26 04:43:39;;;;;;;;;;;;;;;;;;5081316;28;19927;-76
2023/04/26 04:46:25;;;;;;;;;;;;;;;;;;5075188;28;19935;-76
2023/04/26 04:49:12;;;;;;;;;;;;;;;;;;5078531;28;20387;-75
2023/04/26 04:51:58;;;;;;;;;;;;;;;;;;5079795;28;19947;-75
2023/04/26 04:54:45;;;;;;;;;;;;;;;;;;5077098;28;20442;-75
2023/04/26 04:57:31;;;;;;;;;;;;;;;;;;5077100;28;19920;-75
2023/04/26 05:00:18;;;;;;;;;;;;;;;;;;5063521;28;20006;-75
2023/04/26 05:03:04;;;;;;;;;;;;;;;;;;5074205;28;19920;-75
2023/04/26 05:05:51;;;;;;;;;;;;;;;;;;5078800;28;19920;-75
2023/04/26 05:08:37;;;;;;;;;;;;;;;;;;5062808;28;20628;-75
2023/04/26 05:11:24;;;;;;;;;;;;;;;;;;5079816;28;19927;-75
2023/04/26 05:14:10;;;;;;;;;;;;;;;;;;5078903;28;20596;-75
2023/04/26 05:16:57;;;;;;;;;;;;;;;;;;5077312;28;19916;-75
2023/04/26 05:19:43;;;;;;;;;;;;;;;;;;5066740;28;19947;-76
2023/04/26 05:22:30;;;;;;;;;;;;;;;;;;5079651;28;19939;-75
2023/04/26 05:25:16;;;;;;;;;;;;;;;;;;5081609;28;19920;-76
2023/04/26 05:28:03;;;;;;;;;;;;;;;;;;5079421;28;19926;-76
2023/04/26 05:30:49;;;;;;;;;;;;;;;;;;5078975;28;19927;-73
2023/04/26 05:33:36;;;;;;;;;;;;;;;;;;5078933;28;19934;-74
2023/04/26 05:36:22;;;;;;;;;;;;;;;;;;5079102;28;20291;-74
2023/04/26 05:39:09;;;;;;;;;;;;;;;;;;5081531;28;19920;-75
2023/04/26 05:41:56;;;;;;;;;;;;;;;;;;5076642;28;19920;-75
2023/04/26 05:44:42;;;;;;;;;;;;;;;;;;5074525;28;20299;-75
2023/04/26 05:47:29;;;;;;;;;;;;;;;;;;5080435;28;19930;-74
2023/04/26 05:50:15;;;;;;;;;;;;;;;;;;5075938;28;19924;-75
2023/04/26 05:53:01;;;;;;;;;;;;;;;;;;5069876;28;19916;-75
2023/04/26 05:55:48;;;;;;;;;;;;;;;;;;5062394;28;19928;-74
2023/04/26 05:58:35;;;;;;;;;;;;;;;;;;5063426;28;19939;-75
2023/04/26 06:01:21;;;;;;;;;;;;;;;;;;5084393;28;19927;-74
2023/04/26 06:04:08;;;;;;;;;;;;;;;;;;5074886;28;21113;-74
2023/04/26 06:06:54;;;;;;;;;;;;;;;;;;5081437;28;20054;-74
2023/04/26 06:09:41;;;;;;;;;;;;;;;;;;5066602;28;19927;-74
2023/04/26 06:12:27;;;;;;;;;;;;;;;;;;5079609;28;19935;-74
2023/04/26 06:15:14;;;;;;;;;;;;;;;;;;5080444;28;20298;-75
2023/04/26 06:18:00;;;;;;;;;;;;;;;;;;5079615;28;19920;-74
2023/04/26 06:20:47;;;;;;;;;;;;;;;;;;5077631;28;20299;-75
2023/04/26 06:23:33;;;;;;;;;;;;;;;;;;5081315;28;19920;-75
2023/04/26 06:26:20;;;;;;;;;;;;;;;;;;5083567;28;19927;-73
2023/04/26 06:29:06;;;;;;;;;;;;;;;;;;5080720;28;19920;-74
2023/04/26 06:31:53;;;;;;;;;;;;;;;;;;5082166;28;19927;-74
2023/04/26 06:34:39;;;;;;;;;;;;;;;;;;5091003;28;19935;-75
2023/04/26 06:37:26;;;;;;;;;;;;;;;;;;5081635;28;20402;-75
2023/04/26 06:40:14;;;;;;;;;;;;;;;;;;5079336;28;19921;-75
2023/04/26 06:43:01;;;;;;;;;;;;;;;;;;5085904;28;20303;-74
2023/04/26 06:45:47;;;;;;;;;;;;;;;;;;5084347;28;19927;-74
2023/04/26 06:48:34;;;;;;;;;;;;;;;;;;5068095;28;20014;-74
2023/04/26 06:51:20;;;;;;;;;;;;;;;;;;5083845;28;19962;-74
2023/04/26 06:54:07;;;;;;;;;;;;;;;;;;5080768;28;19938;-75
2023/04/26 06:56:53;;;;;;;;;;;;;;;;;;5084784;28;20294;-74
2023/04/26 06:59:40;;;;;;;;;;;;;;;;;;5083457;28;20019;-74
2023/04/26 07:02:26;;;;;;;;;;;;;;;;;;5083948;28;20679;-74
2023/04/26 07:05:14;;;;;;;;;;;;;;;;;;5084637;28;19928;-74
2023/04/26 07:08:00;;;;;;;;;;;;;;;;;;5081166;28;19921;-74
2023/04/26 07:10:47;;;;;;;;;;;;;;;;;;5082282;28;19916;-75
2023/04/26 07:13:33;;;;;;;;;;;;;;;;;;5079848;28;19939;-74
2023/04/26 07:16:20;;;;;;;;;;;;;;;;;;5082007;28;19928;-75
2023/04/26 07:19:06;;;;;;;;;;;;;;;;;;5082235;28;19930;-74
2023/04/26 07:21:53;;;;;;;;;;;;;;;;;;5082892;28;19923;-74
2023/04/26 07:24:39;;;;;;;;;;;;;;;;;;5082580;28;19927;-75
2023/04/26 07:27:26;;;;;;;;;;;;;;;;;;5079721;28;19924;-75
2023/04/26 07:30:12;;;;;;;;;;;;;;;;;;5082183;28;19924;-75
2023/04/26 07:32:59;;;;;;;;;;;;;;;;;;5073213;28;19943;-74
2023/04/26 07:35:45;;;;;;;;;;;;;;;;;;5060809;28;19931;-75
2023/04/26 07:38:32;;;;;;;;;;;;;;;;;;5060423;28;19926;-75
2023/04/26 07:41:18;;;;;;;;;;;;;;;;;;5063423;28;19967;-74
2023/04/26 07:44:05;;;;;;;;;;;;;;;;;;5059463;28;19920;-75
2023/04/26 07:46:51;;;;;;;;;;;;;;;;;;5067830;28;19927;-75
2023/04/26 07:49:38;;;;;;;;;;;;;;;;;;5048831;28;19917;-75
2023/04/26 07:52:24;;;;;;;;;;;;;;;;;;5025334;28;19917;-76
2023/04/26 07:55:11;;;;;;;;;;;;;;;;;;5042657;28;19940;-75
2023/04/26 07:57:57;;;;;;;;;;;;;;;;;;5028293;28;20125;-74
2023/04/26 08:00:44;;;;;;;;;;;;;;;;;;5054044;28;25085;-75
2023/04/26 08:03:31;;;;;;;;;;;;;;;;;;5058615;28;19939;-74
2023/04/26 08:06:17;;;;;;;;;;;;;;;;;;5060112;28;19917;-74
2023/04/26 08:09:04;;;;;;;;;;;;;;;;;;5060197;28;19959;-75
2023/04/26 08:11:50;;;;;;;;;;;;;;;;;;5059386;28;19924;-74
2023/04/26 08:14:37;;;;;;;;;;;;;;;;;;5058758;28;19928;-74
2023/04/26 08:17:23;;;;;;;;;;;;;;;;;;5063125;28;20368;-74
2023/04/26 08:20:10;;;;;;;;;;;;;;;;;;5061802;28;19920;-74
2023/04/26 08:22:56;;;;;;;;;;;;;;;;;;5057964;28;19928;-74
2023/04/26 08:25:43;;;;;;;;;;;;;;;;;;5049680;28;20296;-76
2023/04/26 08:28:29;;;;;;;;;;;;;;;;;;5059432;28;19943;-75
2023/04/26 08:31:16;;;;;;;;;;;;;;;;;;5061144;28;19920;-74
2023/04/26 08:34:03;;;;;;;;;;;;;;;;;;5075957;28;19928;-75
2023/04/26 08:36:50;;;;;;;;;;;;;;;;;;5095449;28;19926;-74
2023/04/26 08:39:36;;;;;;;;;;;;;;;;;;5095794;28;19920;-74
2023/04/26 08:42:23;;;;;;;;;;;;;;;;;;5095249;28;19920;-74
2023/04/26 08:45:12;;;;;;;;;;;;;;;;;;5090800;28;19927;-74
2023/04/26 08:48:00;;;;;;;;;;;;;;;;;;5080087;28;20434;-75
2023/04/26 08:50:47;;;;;;;;;;;;;;;;;;5079893;28;19920;-75
2023/04/26 08:53:34;;;;;;;;;;;;;;;;;;5076558;28;20264;-75
2023/04/26 08:56:21;;;;;;;;;;;;;;;;;;5080519;28;20690;-75
2023/04/26 08:59:07;;;;;;;;;;;;;;;;;;5072334;28;19924;-74
2023/04/26 09:01:54;;;;;;;;;;;;;;;;;;5082193;28;19920;-74
2023/04/26 09:04:40;;;;;;;;;;;;;;;;;;5073054;28;19927;-75
2023/04/26 09:07:27;;;;;;;;;;;;;;;;;;5078233;28;19920;-75
2023/04/26 09:10:13;;;;;;;;;;;;;;;;;;5078462;28;19927;-74
2023/04/26 09:13:00;;;;;;;;;;;;;;;;;;5069041;28;19919;-74
2023/04/26 09:15:46;;;;;;;;;;;;;;;;;;5084908;28;19928;-74
2023/04/26 09:18:33;;;;;;;;;;;;;;;;;;5099413;28;19920;-75
2023/04/26 09:21:19;;;;;;;;;;;;;;;;;;5101701;28;20397;-74
2023/04/26 09:24:06;;;;;;;;;;;;;;;;;;5100587;28;19919;-74
2023/04/26 09:26:52;;;;;;;;;;;;;;;;;;5091970;28;19920;-74
2023/04/26 09:29:39;;;;;;;;;;;;;;;;;;5101713;28;19917;-74
2023/04/26 09:32:25;;;;;;;;;;;;;;;;;;5100179;28;19924;-75
2023/04/26 09:35:12;;;;;;;;;;;;;;;;;;5080383;28;20022;-74
2023/04/26 09:37:58;;;;;;;;;;;;;;;;;;5084983;28;19920;-74
2023/04/26 09:40:45;;;;;;;;;;;;;;;;;;5084503;28;19916;-74
2023/04/26 09:43:32;;;;;;;;;;;;;;;;;;5083102;28;19924;-73
2023/04/26 09:46:18;;;;;;;;;;;;;;;;;;5084708;28;19920;-74
2023/04/26 09:49:05;;;;;;;;;;;;;;;;;;5065616;28;20327;-74
2023/04/26 09:51:51;;;;;;;;;;;;;;;;;;5080539;28;19920;-74
2023/04/26 09:54:38;;;;;;;;;;;;;;;;;;5087326;28;19925;-74
2023/04/26 09:57:24;;;;;;;;;;;;;;;;;;5082962;28;19931;-76
2023/04/26 10:00:11;;;;;;;;;;;;;;;;;;5083075;28;19942;-75
2023/04/26 10:02:57;;;;;;;;;;;;;;;;;;5083400;28;19920;-75
2023/04/26 10:05:44;;;;;;;;;;;;;;;;;;5084314;28;19955;-75
2023/04/26 10:08:31;;;;;;;;;;;;;;;;;;5084997;28;19916;-75
2023/04/26 10:11:18;;;;;;;;;;;;;;;;;;5083114;28;19931;-75
2023/04/26 10:14:05;;;;;;;;;;;;;;;;;;5083041;28;19920;-75
2023/04/26 10:16:51;;;;;;;;;;;;;;;;;;5079282;28;20479;-75
2023/04/26 10:19:38;;;;;;;;;;;;;;;;;;5081435;28;19924;-75
2023/04/26 10:22:25;;;;;;;;;;;;;;;;;;5082333;28;19927;-77
2023/04/26 10:25:11;;;;;;;;;;;;;;;;;;5083910;28;19924;-76
2023/04/26 10:27:58;;;;;;;;;;;;;;;;;;5068727;28;19916;-75
2023/04/26 10:30:44;;;;;;;;;;;;;;;;;;5079866;28;19970;-75
2023/04/26 10:33:30;;;;;;;;;;;;;;;;;;5082141;28;19927;-76
2023/04/26 10:36:19;;;;;;;;;;;;;;;;;;5082593;28;20453;-75
2023/04/26 10:39:06;;;;;;;;;;;;;;;;;;5082078;28;20029;-75
2023/04/26 10:41:52;;;;;;;;;;;;;;;;;;5081855;28;19916;-75
2023/04/26 10:44:39;;;;;;;;;;;;;;;;;;5081154;28;19923;-75
2023/04/26 10:47:26;;;;;;;;;;;;;;;;;;5081025;28;19924;-76
2023/04/26 10:50:12;;;;;;;;;;;;;;;;;;5078711;28;19942;-75
2023/04/26 10:52:59;;;;;;;;;;;;;;;;;;5081867;28;19927;-75
2023/04/26 10:55:46;;;;;;;;;;;;;;;;;;5080829;28;19928;-76
2023/04/26 10:58:32;;;;;;;;;;;;;;;;;;5080878;28;19924;-74
2023/04/26 11:01:19;;;;;;;;;;;;;;;;;;5062559;28;19927;-74
2023/04/26 11:04:06;;;;;;;;;;;;;;;;;;5066229;28;19936;-75
2023/04/26 11:06:53;;;;;;;;;;;;;;;;;;5081711;28;19922;-75
2023/04/26 11:09:39;;;;;;;;;;;;;;;;;;5080942;28;20018;-77
2023/04/26 11:12:26;;;;;;;;;;;;;;;;;;5083270;28;19924;-75
2023/04/26 11:15:12;;;;;;;;;;;;;;;;;;5081537;28;20002;-75
2023/04/26 11:17:59;;;;;;;;;;;;;;;;;;5064778;28;19932;-74
2023/04/26 11:20:45;;;;;;;;;;;;;;;;;;5083135;28;20271;-74
2023/04/26 11:23:32;;;;;;;;;;;;;;;;;;5084658;28;19924;-73
2023/04/26 11:26:18;;;;;;;;;;;;;;;;;;5081933;28;19927;-74
2023/04/26 11:29:05;;;;;;;;;;;;;;;;;;5081752;28;19920;-75
2023/04/26 11:31:51;;;;;;;;;;;;;;;;;;5080274;28;19920;-75
2023/04/26 11:34:38;;;;;;;;;;;;;;;;;;5081144;28;19940;-75
2023/04/26 11:37:24;;;;;;;;;;;;;;;;;;5081163;28;19935;-77
2023/04/26 11:40:11;;;;;;;;;;;;;;;;;;5081482;28;19920;-75
2023/04/26 11:42:57;;;;;;;;;;;;;;;;;;5083941;28;19927;-75
2023/04/26 11:45:44;;;;;;;;;;;;;;;;;;5081061;28;19921;-74
2023/04/26 11:48:30;;;;;;;;;;;;;;;;;;5080551;28;20566;-75
2023/04/26 11:51:17;;;;;;;;;;;;;;;;;;5082148;28;19920;-75
2023/04/26 11:54:05;;;;;;;;;;;;;;;;;;5082148;28;19947;-75
2023/04/26 11:56:52;;;;;;;;;;;;;;;;;;5078448;28;19935;-75
2023/04/26 11:59:38;;;;;;;;;;;;;;;;;;5081145;28;19926;-74
2023/04/26 12:02:25;;;;;;;;;;;;;;;;;;5081204;28;19920;-75
2023/04/26 12:05:12;;;;;;;;;;;;;;;;;;5083607;28;19937;-75
2023/04/26 12:07:59;;;;;;;;;;;;;;;;;;5078599;28;19924;-74
2023/04/26 12:10:45;;;;;;;;;;;;;;;;;;5079269;28;19951;-74
2023/04/26 12:13:32;;;;;;;;;;;;;;;;;;5080579;28;19921;-74
2023/04/26 12:16:18;;;;;;;;;;;;;;;;;;5080949;28;19924;-75
2023/04/26 12:19:06;;;;;;;;;;;;;;;;;;5081219;28;19917;-75
2023/04/26 12:21:53;;;;;;;;;;;;;;;;;;5079980;28;20303;-74
2023/04/26 12:24:41;;;;;;;;;;;;;;;;;;5080042;28;19927;-75
2023/04/26 12:27:28;;;;;;;;;;;;;;;;;;5075610;28;19916;-74
2023/04/26 12:30:15;;;;;;;;;;;;;;;;;;5081218;28;20025;-74
2023/04/26 12:33:01;;;;;;;;;;;;;;;;;;5080592;28;19932;-73
2023/04/26 12:35:48;;;;;;;;;;;;;;;;;;5082568;28;19935;-74
2023/04/26 12:38:35;;;;;;;;;;;;;;;;;;5081295;28;20035;-74
2023/04/26 12:41:22;;;;;;;;;;;;;;;;;;5082427;28;19978;-75
2023/04/26 12:44:08;;;;;;;;;;;;;;;;;;5065453;28;20428;-75
2023/04/26 12:46:55;;;;;;;;;;;;;;;;;;5083071;28;19926;-75
2023/04/26 12:49:41;;;;;;;;;;;;;;;;;;5080864;28;19927;-74
2023/04/26 12:52:28;;;;;;;;;;;;;;;;;;5079244;28;19923;-75
2023/04/26 12:55:14;;;;;;;;;;;;;;;;;;5080457;28;19928;-74
2023/04/26 12:58:01;;;;;;;;;;;;;;;;;;5081756;28;20362;-75
2023/04/26 13:00:50;;;;;;;;;;;;;;;;;;5078014;28;19926;-74
2023/04/26 13:03:36;;;;;;;;;;;;;;;;;;5079067;28;19926;-75
2023/04/26 13:06:23;;;;;;;;;;;;;;;;;;5085640;28;19927;-75
2023/04/26 13:09:12;;;;;;;;;;;;;;;;;;5080105;28;19920;-74
2023/04/26 13:11:58;;;;;;;;;;;;;;;;;;5086900;28;19927;-75
2023/04/26 13:14:45;;;;;;;;;;;;;;;;;;5084247;28;20053;-75
2023/04/26 13:17:31;;;;;;;;;;;;;;;;;;5086476;28;19920;-75
2023/04/26 13:20:18;;;;;;;;;;;;;;;;;;5085360;28;19920;-75
2023/04/26 13:23:05;;;;;;;;;;;;;;;;;;5083625;28;19924;-74
2023/04/26 13:25:51;;;;;;;;;;;;;;;;;;5085124;28;20407;-75
2023/04/26 13:28:38;;;;;;;;;;;;;;;;;;5084066;28;19920;-76
2023/04/26 13:31:24;;;;;;;;;;;;;;;;;;5085278;28;19920;-76
2023/04/26 13:34:11;;;;;;;;;;;;;;;;;;5086600;28;19928;-76
2023/04/26 13:36:59;;;;;;;;;;;;;;;;;;5083409;28;19924;-75
2023/04/26 13:39:46;;;;;;;;;;;;;;;;;;5087214;28;19920;-77
2023/04/26 13:42:32;;;;;;;;;;;;;;;;;;5081520;28;19942;-75
2023/04/26 13:45:19;;;;;;;;;;;;;;;;;;5084896;28;19924;-75
2023/04/26 13:48:05;;;;;;;;;;;;;;;;;;5082355;28;19916;-77
2023/04/26 13:50:51;;;;;;;;;;;;;;;;;;5084421;28;19927;-75
2023/04/26 13:53:38;;;;;;;;;;;;;;;;;;5086662;28;19923;-75
2023/04/26 13:56:25;;;;;;;;;;;;;;;;;;5083515;28;19928;-77
2023/04/26 13:59:11;;;;;;;;;;;;;;;;;;5084962;28;19927;-76
2023/04/26 14:01:58;;;;;;;;;;;;;;;;;;5090975;28;19924;-75
2023/04/26 14:04:44;;;;;;;;;;;;;;;;;;5075134;28;19927;-76
2023/04/26 14:07:31;;;;;;;;;;;;;;;;;;5096734;28;19920;-76
2023/04/26 14:10:17;;;;;;;;;;;;;;;;;;5087681;28;19920;-76
2023/04/26 14:13:03;;;;;;;;;;;;;;;;;;5078318;28;19916;-76
2023/04/26 14:15:50;;;;;;;;;;;;;;;;;;5086903;28;19998;-75
2023/04/26 14:18:39;;;;;;;;;;;;;;;;;;5083398;28;19945;-76
2023/04/26 14:21:25;;;;;;;;;;;;;;;;;;5084225;28;19927;-76
2023/04/26 14:24:12;;;;;;;;;;;;;;;;;;5087091;28;19966;-75
2023/04/26 14:26:58;;;;;;;;;;;;;;;;;;5078109;28;20031;-75
2023/04/26 14:29:45;;;;;;;;;;;;;;;;;;5082984;28;19924;-76
2023/04/26 14:32:31;;;;;;;;;;;;;;;;;;5083331;28;19942;-75
2023/04/26 14:35:18;;;;;;;;;;;;;;;;;;5082282;28;19943;-75
2023/04/26 14:38:05;;;;;;;;;;;;;;;;;;5085367;28;19923;-76
2023/04/26 14:40:51;;;;;;;;;;;;;;;;;;5079438;28;19928;-75
2023/04/26 14:43:38;;;;;;;;;;;;;;;;;;5082694;28;19916;-75
2023/04/26 14:46:24;;;;;;;;;;;;;;;;;;5081434;28;19920;-77
2023/04/26 14:49:11;;;;;;;;;;;;;;;;;;5077779;28;19920;-75
2023/04/26 14:51:57;;;;;;;;;;;;;;;;;;5082787;28;19920;-75
2023/04/26 14:54:44;;;;;;;;;;;;;;;;;;5082549;28;19912;-74
2023/04/26 14:57:31;;;;;;;;;;;;;;;;;;5081489;28;19975;-75
2023/04/26 15:00:18;;;;;;;;;;;;;;;;;;5080382;28;19930;-76
2023/04/26 15:03:04;;;;;;;;;;;;;;;;;;5080210;28;19942;-74
2023/04/26 15:05:51;;;;;;;;;;;;;;;;;;5079039;28;19916;-75
2023/04/26 15:08:37;;;;;;;;;;;;;;;;;;5080575;28;19920;-75
2023/04/26 15:11:24;;;;;;;;;;;;;;;;;;5083252;28;20388;-76
2023/04/26 15:14:10;;;;;;;;;;;;;;;;;;5062451;28;20373;-76
2023/04/26 15:16:57;;;;;;;;;;;;;;;;;;5084464;28;19934;-75
2023/04/26 15:19:43;;;;;;;;;;;;;;;;;;5066257;28;19927;-76
2023/04/26 15:22:30;;;;;;;;;;;;;;;;;;5082081;28;19920;-77
2023/04/26 15:25:16;;;;;;;;;;;;;;;;;;5075914;28;19920;-77
2023/04/26 15:28:03;;;;;;;;;;;;;;;;;;5078688;28;19924;-77
2023/04/26 15:30:49;;;;;;;;;;;;;;;;;;5079635;28;20296;-76
2023/04/26 15:33:36;;;;;;;;;;;;;;;;;;5078243;28;19928;-74
2023/04/26 15:36:22;;;;;;;;;;;;;;;;;;5079200;28;19935;-75
2023/04/26 15:39:09;;;;;;;;;;;;;;;;;;5074961;28;19935;-74
2023/04/26 15:41:56;;;;;;;;;;;;;;;;;;5079738;28;19920;-74
2023/04/26 15:44:43;;;;;;;;;;;;;;;;;;5065004;28;20307;-74
2023/04/26 15:47:29;;;;;;;;;;;;;;;;;;5065478;28;19926;-74
2023/04/26 15:50:16;;;;;;;;;;;;;;;;;;5076939;28;19920;-74
2023/04/26 15:53:02;;;;;;;;;;;;;;;;;;5081215;28;19927;-74
2023/04/26 15:55:49;;;;;;;;;;;;;;;;;;5080892;28;19928;-74
2023/04/26 15:58:35;;;;;;;;;;;;;;;;;;5063008;28;19916;-74
2023/04/26 16:01:22;;;;;;;;;;;;;;;;;;5059687;28;20377;-74
2023/04/26 16:04:08;;;;;;;;;;;;;;;;;;5074902;28;19935;-74
2023/04/26 16:06:55;;;;;;;;;;;;;;;;;;5083208;28;19923;-74
2023/04/26 16:09:41;;;;;;;;;;;;;;;;;;5079359;28;20415;-74
2023/04/26 16:12:28;;;;;;;;;;;;;;;;;;5078215;28;19931;-74
2023/04/26 16:15:14;;;;;;;;;;;;;;;;;;5080813;28;19928;-74
2023/04/26 16:18:01;;;;;;;;;;;;;;;;;;5082614;28;19916;-74
2023/04/26 16:20:47;;;;;;;;;;;;;;;;;;5076841;28;19920;-74
2023/04/26 16:23:34;;;;;;;;;;;;;;;;;;5077542;28;19927;-75
2023/04/26 16:26:21;;;;;;;;;;;;;;;;;;5079868;28;19920;-75
2023/04/26 16:29:07;;;;;;;;;;;;;;;;;;5076795;28;20571;-75
2023/04/26 16:31:53;;;;;;;;;;;;;;;;;;5064906;28;19927;-75
2023/04/26 16:34:40;;;;;;;;;;;;;;;;;;5060666;28;19940;-74
2023/04/26 16:37:27;;;;;;;;;;;;;;;;;;5059678;28;20312;-75
2023/04/26 16:40:13;;;;;;;;;;;;;;;;;;5073768;28;19927;-75
2023/04/26 16:43:00;;;;;;;;;;;;;;;;;;5061538;28;19927;-75
2023/04/26 16:45:46;;;;;;;;;;;;;;;;;;5055688;28;19920;-74
2023/04/26 16:48:33;;;;;;;;;;;;;;;;;;5057060;28;19924;-75
2023/04/26 16:51:19;;;;;;;;;;;;;;;;;;5062625;28;19921;-75
2023/04/26 16:54:06;;;;;;;;;;;;;;;;;;5049882;28;19920;-76
2023/04/26 16:56:52;;;;;;;;;;;;;;;;;;5060040;28;19930;-76
2023/04/26 16:59:39;;;;;;;;;;;;;;;;;;5062741;28;19923;-75
2023/04/26 17:02:25;;;;;;;;;;;;;;;;;;5061434;28;20391;-75
2023/04/26 17:05:12;;;;;;;;;;;;;;;;;;5060035;28;19928;-75
2023/04/26 17:07:58;;;;;;;;;;;;;;;;;;5061348;28;19921;-75
2023/04/26 17:10:45;;;;;;;;;;;;;;;;;;5056464;28;20670;-76
2023/04/26 17:13:32;;;;;;;;;;;;;;;;;;5056006;28;19923;-76
2023/04/26 17:16:18;;;;;;;;;;;;;;;;;;5062595;28;19928;-77
2023/04/26 17:19:05;;;;;;;;;;;;;;;;;;5056134;28;19921;-75
2023/04/26 17:21:52;;;;;;;;;;;;;;;;;;5061637;28;19921;-74
2023/04/26 17:24:38;;;;;;;;;;;;;;;;;;5061829;28;20376;-75
2023/04/26 17:27:25;;;;;;;;;;;;;;;;;;5057864;28;19921;-77
2023/04/26 17:30:12;;;;;;;;;;;;;;;;;;5062678;28;19920;-75
2023/04/26 17:32:58;;;;;;;;;;;;;;;;;;5069607;28;19924;-76
2023/04/26 17:35:46;;;;;;;;;;;;;;;;;;5075311;28;20387;-75
2023/04/26 17:38:32;;;;;;;;;;;;;;;;;;5079522;28;20403;-75
2023/04/26 17:41:19;;;;;;;;;;;;;;;;;;5079306;28;19924;-74
2023/04/26 17:44:06;;;;;;;;;;;;;;;;;;5079530;28;19927;-75
2023/04/26 17:46:52;;;;;;;;;;;;;;;;;;5084145;28;19920;-77
2023/04/26 17:49:39;;;;;;;;;;;;;;;;;;5079721;28;19938;-75
2023/04/26 17:52:25;;;;;;;;;;;;;;;;;;5079303;28;19923;-75
2023/04/26 17:55:12;;;;;;;;;;;;;;;;;;5080878;28;19926;-75
2023/04/26 17:57:59;;;;;;;;;;;;;;;;;;5105298;27;19916;-75
2023/04/26 18:00:46;;;;;;;;;;;;;;;;;;5083643;28;19928;-73
2023/04/26 18:03:34;;;;;;;;;;;;;;;;;;5083411;28;20676;-74
2023/04/26 18:06:21;;;;;;;;;;;;;;;;;;5083693;28;19927;-73
2023/04/26 18:09:08;;;;;;;;;;;;;;;;;;5085072;28;19932;-76
2023/04/26 18:11:54;;;;;;;;;;;;;;;;;;5081830;28;19923;-73
2023/04/26 18:14:43;;;;;;;;;;;;;;;;;;5083092;28;19931;-73
2023/04/26 18:17:30;;;;;;;;;;;;;;;;;;5082280;28;19936;-73
2023/04/26 18:20:17;;;;;;;;;;;;;;;;;;5081997;28;19916;-73
2023/04/26 18:23:03;;;;;;;;;;;;;;;;;;5086830;28;19920;-73
2023/04/26 18:25:50;;;;;;;;;;;;;;;;;;5083657;28;19920;-74
2023/04/26 18:28:36;;;;;;;;;;;;;;;;;;5081576;28;19927;-74
2023/04/26 18:31:23;;;;;;;;;;;;;;;;;;5084351;28;19927;-73
2023/04/26 18:34:10;;;;;;;;;;;;;;;;;;5078809;28;20482;-73
2023/04/26 18:36:56;;;;;;;;;;;;;;;;;;5084393;28;20582;-73
2023/04/26 18:39:43;;;;;;;;;;;;;;;;;;5079284;28;19920;-74
2023/04/26 18:42:30;;;;;;;;;;;;;;;;;;5082900;28;19931;-74
2023/04/26 18:45:16;;;;;;;;;;;;;;;;;;5077479;28;20268;-74
2023/04/26 18:48:03;;;;;;;;;;;;;;;;;;5087468;28;19916;-74
2023/04/26 18:50:50;;;;;;;;;;;;;;;;;;5075886;28;19924;-74
2023/04/26 18:53:36;;;;;;;;;;;;;;;;;;5082440;28;20364;-74
2023/04/26 18:56:23;;;;;;;;;;;;;;;;;;5077683;28;19928;-74